Time;durP1;ratioP1;P1;durP2;ratioP2;P2;SDS_P1;SDS_P2;PMS_P1;PMS_P2;Temp;Humidity;BMP_temperature;BMP_pressure;BME280_temperature;BME280_humidity;BME280_pressure;Samples;Min_cycle;Max_cycle;Signal;HPM_P1;HPM_P2
2022/01/25 00:26:31;;;;;;;21.70;14.85;;;;;;;;;;5012220;28;20037;-72
2022/01/25 00:29:11;;;;;;;24.45;14.98;;;;;;;;;;5015097;28;20034;-72
2022/01/25 00:31:38;;;;;;;24.25;16.05;;;;;;;;;;5014092;28;20126;-72
2022/01/25 00:34:05;;;;;;;27.55;16.42;;;;;;;;;;5014147;28;20034;-72
2022/01/25 00:36:31;;;;;;;30.63;17.83;;;;;;;;;;5014392;28;20440;-72
2022/01/25 00:38:58;;;;;;;27.83;17.52;;;;;;;;;;5017743;28;20042;-72
2022/01/25 00:41:25;;;;;;;28.63;17.20;;;;;;;;;;5017857;28;20132;-72
2022/01/25 00:43:52;;;;;;;23.98;14.65;;;;;;;;;;5017930;28;20099;-72
2022/01/25 00:46:20;;;;;;;26.88;14.43;;;;;;;;;;5018404;28;20154;-72
2022/01/25 00:48:50;;;;;;;27.10;15.50;;;;;;;;;;5017613;28;20034;-72
2022/01/25 00:54:01;;;;;;;25.92;16.13;;;;;;;;;;5018330;28;20042;-72
2022/01/25 00:56:31;;;;;;;27.38;16.58;;;;;;;;;;5017385;28;20469;-73
2022/01/25 00:58:58;;;;;;;35.72;18.95;;;;;;;;;;5017286;28;20041;-73
2022/01/25 01:01:24;;;;;;;33.55;18.67;;;;;;;;;;5017482;28;20042;-73
2022/01/25 01:03:50;;;;;;;30.92;18.13;;;;;;;;;;5017607;28;20037;-72
2022/01/25 01:06:17;;;;;;;26.25;15.55;;;;;;;;;;5017224;28;20041;-73
2022/01/25 01:08:43;;;;;;;26.13;14.75;;;;;;;;;;5017469;28;20061;-73
2022/01/25 01:11:14;;;;;;;27.75;14.85;;;;;;;;;;5016725;28;20030;-73
2022/01/25 01:30:08;;;;;;;25.77;14.73;;;;;;;;;;5016858;28;20036;-73
2022/01/25 01:35:41;;;;;;;20.08;13.40;;;;;;;;;;5016853;28;20157;-73
2022/01/25 01:50:54;;;;;;;25.25;12.57;;;;;;;;;;5016270;28;20076;-73
2022/01/25 01:53:20;;;;;;;23.05;13.68;;;;;;;;;;5016867;28;20125;-73
2022/01/25 01:55:46;;;;;;;21.08;12.68;;;;;;;;;;5016546;28;20493;-72
2022/01/25 01:58:14;;;;;;;18.40;12.20;;;;;;;;;;5016832;28;20034;-72
2022/01/25 02:00:42;;;;;;;16.10;10.88;;;;;;;;;;5016747;28;20037;-72
2022/01/25 02:03:08;;;;;;;20.63;11.82;;;;;;;;;;5016743;28;20597;-73
2022/01/25 02:05:34;;;;;;;19.20;12.10;;;;;;;;;;5016687;28;20038;-73
2022/01/25 02:08:01;;;;;;;20.33;13.10;;;;;;;;;;5016417;28;20037;-73
2022/01/25 02:10:28;;;;;;;18.65;12.00;;;;;;;;;;5016665;28;20077;-72
2022/01/25 02:12:54;;;;;;;19.92;12.25;;;;;;;;;;5016571;28;20048;-72
2022/01/25 02:15:21;;;;;;;16.67;10.05;;;;;;;;;;5015900;28;20052;-72
2022/01/25 02:23:21;;;;;;;15.07;10.18;;;;;;;;;;5015465;28;20452;-72
2022/01/25 02:25:49;;;;;;;13.30;10.13;;;;;;;;;;5015957;28;20037;-72
2022/01/25 02:28:15;;;;;;;16.23;10.38;;;;;;;;;;5015980;28;20042;-73
2022/01/25 02:30:42;;;;;;;15.52;10.68;;;;;;;;;;5016057;28;20030;-73
2022/01/25 02:33:09;;;;;;;17.17;11.13;;;;;;;;;;5015479;28;20101;-73
2022/01/25 02:35:35;;;;;;;14.55;10.15;;;;;;;;;;5015880;28;20061;-72
2022/01/25 02:38:01;;;;;;;15.52;9.73;;;;;;;;;;5015373;28;20038;-73
2022/01/25 02:40:28;;;;;;;18.23;10.82;;;;;;;;;;5015947;28;20117;-72
2022/01/25 02:42:54;;;;;;;16.48;10.25;;;;;;;;;;5015388;28;20119;-73
2022/01/25 02:45:22;;;;;;;16.23;9.57;;;;;;;;;;5015945;28;20045;-73
2022/01/25 02:50:33;;;;;;;17.45;10.10;;;;;;;;;;5015090;28;20029;-73
2022/01/25 02:52:59;;;;;;;17.75;10.55;;;;;;;;;;5015267;28;20116;-73
2022/01/25 02:55:25;;;;;;;16.50;10.40;;;;;;;;;;5015359;28;20033;-73
2022/01/25 02:57:51;;;;;;;14.48;9.57;;;;;;;;;;5015503;28;20033;-72
2022/01/25 03:00:18;;;;;;;15.93;9.75;;;;;;;;;;5015069;28;20041;-73
2022/01/25 03:02:44;;;;;;;17.38;9.75;;;;;;;;;;5015615;28;20038;-73
2022/01/25 03:05:10;;;;;;;14.60;9.73;;;;;;;;;;5015239;28;20030;-73
2022/01/25 03:07:40;;;;;;;15.68;10.45;;;;;;;;;;5015354;28;20111;-73
2022/01/25 03:10:06;;;;;;;15.82;9.65;;;;;;;;;;5015428;28;20044;-73
2022/01/25 03:12:43;;;;;;;13.85;9.60;;;;;;;;;;5014953;28;20033;-73
2022/01/25 03:17:46;;;;;;;17.42;10.77;;;;;;;;;;5015474;28;20077;-72
2022/01/25 03:20:19;;;;;;;19.70;10.98;;;;;;;;;;5015123;28;20041;-73
2022/01/25 03:25:24;;;;;;;14.93;9.80;;;;;;;;;;5015413;28;20092;-72
2022/01/25 03:27:50;;;;;;;19.88;10.05;;;;;;;;;;5015524;28;20061;-73
2022/01/25 03:30:17;;;;;;;15.65;10.90;;;;;;;;;;5015499;28;20127;-72
2022/01/25 03:32:43;;;;;;;15.77;10.48;;;;;;;;;;5015267;28;20053;-72
2022/01/25 03:35:09;;;;;;;15.20;9.75;;;;;;;;;;5015091;28;20121;-73
2022/01/25 03:37:35;;;;;;;14.23;10.25;;;;;;;;;;5015209;28;20069;-73
2022/01/25 03:40:01;;;;;;;16.00;10.40;;;;;;;;;;5015455;28;20030;-72
2022/01/25 03:42:28;;;;;;;13.82;8.70;;;;;;;;;;5015623;28;20041;-73
2022/01/25 03:44:56;;;;;;;15.40;9.15;;;;;;;;;;5014820;28;20096;-72
2022/01/25 03:47:31;;;;;;;14.13;8.95;;;;;;;;;;5014777;28;20030;-72
2022/01/25 03:49:57;;;;;;;14.63;9.20;;;;;;;;;;5015086;28;20061;-73
2022/01/25 03:52:29;;;;;;;12.75;9.45;;;;;;;;;;5014708;28;20073;-72
2022/01/25 03:54:55;;;;;;;12.32;9.35;;;;;;;;;;5014735;28;20045;-73
2022/01/25 03:57:21;;;;;;;12.52;9.23;;;;;;;;;;5015284;28;20088;-73
2022/01/25 03:59:48;;;;;;;14.93;9.43;;;;;;;;;;5015285;28;20037;-73
2022/01/25 04:02:15;;;;;;;14.80;8.30;;;;;;;;;;5014913;28;20053;-72
2022/01/25 04:04:41;;;;;;;14.32;9.30;;;;;;;;;;5013568;28;20369;-73
2022/01/25 04:07:12;;;;;;;17.23;9.18;;;;;;;;;;5014629;28;20116;-73
2022/01/25 04:09:38;;;;;;;11.93;8.63;;;;;;;;;;5015038;28;20501;-73
2022/01/25 04:12:05;;;;;;;12.43;8.55;;;;;;;;;;5015217;28;20123;-72
2022/01/25 04:14:31;;;;;;;15.85;10.30;;;;;;;;;;5018332;28;20053;-72
2022/01/25 04:17:05;;;;;;;15.68;9.60;;;;;;;;;;5018466;28;20037;-73
2022/01/25 04:27:06;;;;;;;14.88;9.25;;;;;;;;;;5018304;28;20038;-73
2022/01/25 04:29:32;;;;;;;13.60;8.90;;;;;;;;;;5018315;28;20508;-73
2022/01/25 04:31:58;;;;;;;13.52;9.30;;;;;;;;;;5017881;28;20044;-73
2022/01/25 04:53:29;;;;;;;16.15;10.23;;;;;;;;;;5018594;28;20052;-72
2022/01/25 04:58:52;;;;;;;15.20;9.95;;;;;;;;;;5000940;28;20508;-73
2022/01/25 05:01:18;;;;;;;15.32;10.70;;;;;;;;;;4997317;28;20073;-73
2022/01/25 05:03:56;;;;;;;17.75;10.52;;;;;;;;;;5014083;28;20037;-73
2022/01/25 05:06:23;;;;;;;15.75;10.40;;;;;;;;;;5005872;28;20041;-73
2022/01/25 05:08:53;;;;;;;13.98;8.80;;;;;;;;;;5022016;28;20077;-73
2022/01/25 05:11:33;;;;;;;16.80;10.18;;;;;;;;;;5036805;28;20041;-73
2022/01/25 05:16:37;;;;;;;13.38;10.15;;;;;;;;;;5024458;28;20034;-73
2022/01/25 05:24:28;;;;;;;14.05;9.07;;;;;;;;;;5030365;28;20109;-73
2022/01/25 05:26:54;;;;;;;16.23;9.35;;;;;;;;;;5020907;28;20038;-73
2022/01/25 05:29:20;;;;;;;15.98;9.48;;;;;;;;;;5017437;28;20045;-73
2022/01/25 05:31:46;;;;;;;15.35;9.98;;;;;;;;;;5017376;28;20041;-73
2022/01/25 05:34:13;;;;;;;15.75;10.35;;;;;;;;;;5022029;28;20040;-73
2022/01/25 05:36:42;;;;;;;14.90;10.23;;;;;;;;;;5036780;28;20079;-73
2022/01/25 05:39:12;;;;;;;16.23;10.55;;;;;;;;;;5037196;28;20044;-73
2022/01/25 05:41:40;;;;;;;14.85;10.13;;;;;;;;;;5036904;28;20045;-73
2022/01/25 05:49:23;;;;;;;17.00;11.32;;;;;;;;;;5036321;28;20025;-72
2022/01/25 05:51:49;;;;;;;18.25;11.38;;;;;;;;;;5036506;28;20044;-73
2022/01/25 05:54:15;;;;;;;16.38;10.75;;;;;;;;;;5036934;28;20033;-73
2022/01/25 05:56:42;;;;;;;16.27;10.52;;;;;;;;;;5036673;28;20079;-72
2022/01/25 05:59:08;;;;;;;15.77;10.07;;;;;;;;;;5036787;28;20064;-72
2022/01/25 06:01:37;;;;;;;18.65;11.23;;;;;;;;;;5036787;28;20045;-72
2022/01/25 06:04:03;;;;;;;16.92;11.60;;;;;;;;;;5036392;28;20040;-73
2022/01/25 06:06:30;;;;;;;12.95;9.85;;;;;;;;;;5036485;28;20037;-72
2022/01/25 06:08:57;;;;;;;17.10;10.48;;;;;;;;;;5036969;28;20504;-72
2022/01/25 06:11:23;;;;;;;16.75;10.68;;;;;;;;;;5036581;28;20061;-72
2022/01/25 06:13:49;;;;;;;21.75;12.07;;;;;;;;;;5035900;28;20084;-72
2022/01/25 06:16:15;;;;;;;19.85;11.68;;;;;;;;;;5036593;28;20091;-72
2022/01/25 06:18:42;;;;;;;28.17;14.95;;;;;;;;;;5035808;28;20069;-74
2022/01/25 06:21:08;;;;;;;20.77;12.05;;;;;;;;;;5036017;28;20484;-74
2022/01/25 06:23:35;;;;;;;24.13;12.30;;;;;;;;;;5036214;28;20041;-73
2022/01/25 06:26:01;;;;;;;15.80;10.50;;;;;;;;;;5036094;28;20043;-73
2022/01/25 06:28:27;;;;;;;17.15;10.25;;;;;;;;;;5036628;28;20038;-73
2022/01/25 06:30:53;;;;;;;19.52;10.60;;;;;;;;;;5036093;28;20092;-74
2022/01/25 06:33:19;;;;;;;17.40;11.05;;;;;;;;;;5034541;28;20362;-74
2022/01/25 06:35:46;;;;;;;16.30;10.27;;;;;;;;;;5035385;28;20040;-73
2022/01/25 06:38:13;;;;;;;15.70;10.82;;;;;;;;;;5035849;28;20029;-73
2022/01/25 06:40:40;;;;;;;18.08;12.05;;;;;;;;;;5035254;28;20044;-73
2022/01/25 06:43:06;;;;;;;18.60;10.90;;;;;;;;;;5018727;28;20631;-73
2022/01/25 06:45:33;;;;;;;17.17;10.30;;;;;;;;;;5014376;28;20036;-73
2022/01/25 06:48:00;;;;;;;16.67;9.60;;;;;;;;;;5013462;28;20088;-73
2022/01/25 06:50:26;;;;;;;14.70;10.25;;;;;;;;;;5015352;28;20191;-73
2022/01/25 06:52:52;;;;;;;18.60;11.43;;;;;;;;;;5015049;28;20118;-74
2022/01/25 06:55:19;;;;;;;18.42;12.30;;;;;;;;;;5015552;28;20038;-74
2022/01/25 06:57:45;;;;;;;16.92;11.50;;;;;;;;;;5015500;28;20034;-72
2022/01/25 07:00:13;;;;;;;15.02;9.32;;;;;;;;;;5015785;28;20115;-74
2022/01/25 07:02:39;;;;;;;13.65;9.35;;;;;;;;;;5015874;28;20045;-72
2022/01/25 07:05:06;;;;;;;16.05;10.27;;;;;;;;;;5015046;28;20037;-74
2022/01/25 07:07:32;;;;;;;14.73;8.63;;;;;;;;;;5015280;28;20034;-75
2022/01/25 07:09:58;;;;;;;13.00;8.32;;;;;;;;;;5014976;28;20087;-72
2022/01/25 07:12:25;;;;;;;14.52;9.90;;;;;;;;;;5013799;28;20184;-72
2022/01/25 07:14:51;;;;;;;15.77;10.88;;;;;;;;;;5015233;28;20107;-72
2022/01/25 07:17:17;;;;;;;14.98;10.40;;;;;;;;;;5015025;28;20041;-72
2022/01/25 07:19:43;;;;;;;15.52;10.57;;;;;;;;;;5014678;28;20034;-72
2022/01/25 07:22:09;;;;;;;16.52;11.38;;;;;;;;;;5015193;28;20063;-72
2022/01/25 07:24:35;;;;;;;18.85;14.20;;;;;;;;;;5015022;28;20045;-72
2022/01/25 07:27:02;;;;;;;25.65;14.60;;;;;;;;;;5014992;28;20396;-72
2022/01/25 07:29:28;;;;;;;22.95;15.68;;;;;;;;;;5015375;28;20052;-72
2022/01/25 07:31:55;;;;;;;25.20;14.88;;;;;;;;;;5015142;28;20569;-72
2022/01/25 07:34:22;;;;;;;24.25;15.90;;;;;;;;;;5015047;28;20065;-72
2022/01/25 07:36:48;;;;;;;22.92;12.48;;;;;;;;;;5014981;28;20044;-72
2022/01/25 07:39:14;;;;;;;18.52;12.13;;;;;;;;;;5015635;28;20485;-72
2022/01/25 07:41:40;;;;;;;18.45;12.02;;;;;;;;;;5014794;28;20041;-72
2022/01/25 07:44:07;;;;;;;13.10;10.02;;;;;;;;;;5015158;28;20038;-74
2022/01/25 07:46:33;;;;;;;18.73;9.52;;;;;;;;;;5014689;28;20030;-73
2022/01/25 07:49:00;;;;;;;16.92;9.90;;;;;;;;;;5013568;28;20401;-74
2022/01/25 07:51:26;;;;;;;15.25;10.23;;;;;;;;;;5014099;28;20042;-74
2022/01/25 07:53:53;;;;;;;14.77;9.82;;;;;;;;;;5014742;28;20038;-73
2022/01/25 07:56:20;;;;;;;16.77;10.93;;;;;;;;;;5014925;28;20113;-73
2022/01/25 07:58:47;;;;;;;17.55;11.57;;;;;;;;;;5015009;28;20042;-74
2022/01/25 08:01:14;;;;;;;29.30;19.30;;;;;;;;;;5015200;28;20038;-73
2022/01/25 08:03:40;;;;;;;25.17;17.88;;;;;;;;;;5014615;28;20501;-74
2022/01/25 08:06:07;;;;;;;25.23;16.90;;;;;;;;;;5014413;28;20061;-74
2022/01/25 08:08:33;;;;;;;27.83;18.10;;;;;;;;;;5011833;28;20030;-74
2022/01/25 08:10:59;;;;;;;27.55;18.35;;;;;;;;;;5012892;28;20038;-74
2022/01/25 08:13:26;;;;;;;28.35;18.27;;;;;;;;;;5014088;28;20069;-74
2022/01/25 08:15:52;;;;;;;23.15;16.25;;;;;;;;;;5011992;28;20050;-74
2022/01/25 08:18:18;;;;;;;25.45;17.00;;;;;;;;;;5014269;28;20042;-74
2022/01/25 08:20:44;;;;;;;23.20;16.40;;;;;;;;;;5014841;28;20045;-74
2022/01/25 08:23:12;;;;;;;21.23;14.65;;;;;;;;;;5013695;28;20045;-74
2022/01/25 08:25:38;;;;;;;23.10;14.40;;;;;;;;;;5012944;28;20048;-74
2022/01/25 08:28:04;;;;;;;23.70;14.45;;;;;;;;;;5012645;28;20744;-74
2022/01/25 08:30:31;;;;;;;28.30;16.00;;;;;;;;;;5013227;28;20502;-74
2022/01/25 08:32:57;;;;;;;22.67;15.32;;;;;;;;;;5013595;28;20155;-73
2022/01/25 08:35:23;;;;;;;25.42;17.58;;;;;;;;;;5014194;28;20079;-72
2022/01/25 08:37:49;;;;;;;20.38;14.82;;;;;;;;;;5012927;28;20038;-73
2022/01/25 08:40:16;;;;;;;23.10;15.82;;;;;;;;;;5012503;28;20045;-74
2022/01/25 08:42:42;;;;;;;18.90;13.48;;;;;;;;;;5012137;28;20046;-73
2022/01/25 08:45:09;;;;;;;18.08;13.30;;;;;;;;;;5012408;28;20124;-74
2022/01/25 08:47:36;;;;;;;26.33;17.95;;;;;;;;;;5012073;28;20044;-76
2022/01/25 08:50:03;;;;;;;20.92;15.77;;;;;;;;;;5012588;28;20095;-73
2022/01/25 08:52:29;;;;;;;25.95;17.40;;;;;;;;;;5012778;28;20049;-73
2022/01/25 08:54:55;;;;;;;33.42;24.33;;;;;;;;;;5012163;28;20397;-73
2022/01/25 08:57:22;;;;;;;36.20;24.77;;;;;;;;;;5012242;28;20033;-73
2022/01/25 08:59:48;;;;;;;35.25;23.27;;;;;;;;;;5030603;28;20576;-74
2022/01/25 09:02:14;;;;;;;34.88;22.13;;;;;;;;;;5016157;28;20497;-73
2022/01/25 09:04:40;;;;;;;34.17;23.40;;;;;;;;;;5016444;28;20029;-73
2022/01/25 09:07:06;;;;;;;35.78;20.77;;;;;;;;;;5016494;28;20038;-73
2022/01/25 09:09:33;;;;;;;27.85;21.08;;;;;;;;;;5016818;28;20095;-73
2022/01/25 09:11:59;;;;;;;29.50;20.13;;;;;;;;;;5016592;28;20092;-71
2022/01/25 09:14:25;;;;;;;24.95;17.88;;;;;;;;;;5015806;28;20065;-72
2022/01/25 09:16:52;;;;;;;25.45;16.77;;;;;;;;;;5015860;28;20042;-72
2022/01/25 09:19:18;;;;;;;26.45;17.08;;;;;;;;;;5015405;28;20504;-72
2022/01/25 09:21:44;;;;;;;22.38;15.43;;;;;;;;;;5015635;28;20469;-72
2022/01/25 09:24:10;;;;;;;19.92;15.48;;;;;;;;;;5015744;28;20038;-72
2022/01/25 09:26:37;;;;;;;21.77;15.05;;;;;;;;;;5015346;28;20030;-72
2022/01/25 09:29:03;;;;;;;20.77;15.63;;;;;;;;;;5015685;28;20042;-71
2022/01/25 09:31:31;;;;;;;25.65;15.50;;;;;;;;;;5015580;28;20033;-72
2022/01/25 09:33:57;;;;;;;19.80;14.40;;;;;;;;;;5016134;28;20236;-72
2022/01/25 09:36:24;;;;;;;19.65;13.88;;;;;;;;;;5017269;28;20096;-72
2022/01/25 09:38:51;;;;;;;21.25;15.48;;;;;;;;;;5016882;28;20469;-72
2022/01/25 09:41:17;;;;;;;24.52;15.70;;;;;;;;;;5016831;28;20377;-72
2022/01/25 09:43:44;;;;;;;25.25;17.23;;;;;;;;;;5017156;28;20044;-72
2022/01/25 09:46:10;;;;;;;21.67;15.82;;;;;;;;;;5015825;28;20128;-71
2022/01/25 09:48:36;;;;;;;27.00;15.98;;;;;;;;;;5015906;28;20421;-71
2022/01/25 09:51:03;;;;;;;23.67;15.68;;;;;;;;;;5015975;28;20401;-72
2022/01/25 09:53:31;;;;;;;22.15;14.05;;;;;;;;;;5015112;28;20117;-72
2022/01/25 09:55:57;;;;;;;25.00;18.98;;;;;;;;;;5015101;28;20037;-72
2022/01/25 09:58:23;;;;;;;21.92;15.32;;;;;;;;;;5015647;28;20034;-72
2022/01/25 10:00:55;;;;;;;23.92;16.80;;;;;;;;;;5016892;28;20041;-72
2022/01/25 10:03:27;;;;;;;22.25;16.85;;;;;;;;;;5014885;28;20049;-72
2022/01/25 10:05:56;;;;;;;22.13;17.05;;;;;;;;;;5003036;28;20097;-72
2022/01/25 10:08:26;;;;;;;27.42;17.58;;;;;;;;;;5007075;28;20511;-72
2022/01/25 10:10:56;;;;;;;23.17;17.02;;;;;;;;;;4996565;28;20042;-72
2022/01/25 10:13:24;;;;;;;23.10;17.13;;;;;;;;;;4997441;28;20073;-71
2022/01/25 10:16:09;;;;;;;26.20;16.85;;;;;;;;;;4996175;28;20082;-72
2022/01/25 10:18:39;;;;;;;23.35;16.85;;;;;;;;;;4996124;28;20035;-72
2022/01/25 10:21:11;;;;;;;25.73;19.20;;;;;;;;;;4995762;28;20120;-72
2022/01/25 10:23:37;;;;;;;29.65;19.75;;;;;;;;;;4994588;28;20034;-71
2022/01/25 10:26:04;;;;;;;25.92;18.83;;;;;;;;;;4994660;28;20073;-72
2022/01/25 10:28:31;;;;;;;26.77;19.10;;;;;;;;;;4995109;28;20041;-72
2022/01/25 10:30:59;;;;;;;21.02;16.40;;;;;;;;;;4995977;28;20057;-71
2022/01/25 10:33:32;;;;;;;23.15;15.88;;;;;;;;;;4995504;28;20056;-72
2022/01/25 10:36:22;;;;;;;20.63;15.35;;;;;;;;;;4995930;28;20030;-72
2022/01/25 10:38:49;;;;;;;23.95;16.98;;;;;;;;;;4994201;28;20478;-71
2022/01/25 10:41:23;;;;;;;20.55;15.25;;;;;;;;;;4995898;28;20042;-71
2022/01/25 10:43:50;;;;;;;21.35;16.00;;;;;;;;;;4995428;28;20070;-71
2022/01/25 10:46:16;;;;;;;21.73;15.68;;;;;;;;;;4995851;28;20066;-71
2022/01/25 10:48:44;;;;;;;19.63;15.88;;;;;;;;;;4993603;28;20164;-71
2022/01/25 10:51:12;;;;;;;23.88;16.70;;;;;;;;;;4994253;28;20081;-71
2022/01/25 10:53:38;;;;;;;22.10;16.15;;;;;;;;;;4993861;28;20514;-71
2022/01/25 10:56:06;;;;;;;25.58;18.33;;;;;;;;;;4994887;28;20466;-71
2022/01/25 10:58:36;;;;;;;25.65;17.40;;;;;;;;;;4995487;28;20034;-72
2022/01/25 11:01:02;;;;;;;24.87;17.33;;;;;;;;;;4996201;28;20497;-72
2022/01/25 11:03:32;;;;;;;54.85;42.40;;;;;;;;;;4995088;28;20289;-72
2022/01/25 11:06:08;;;;;;;34.78;24.77;;;;;;;;;;4995422;28;20061;-72
2022/01/25 11:08:36;;;;;;;32.53;24.73;;;;;;;;;;4995917;28;20092;-72
2022/01/25 11:11:03;;;;;;;22.77;16.42;;;;;;;;;;4996679;28;20129;-76
2022/01/25 11:15:56;;;;;;;18.17;13.52;;;;;;;;;;4994867;28;20455;-70
2022/01/25 11:18:23;;;;;;;19.33;14.30;;;;;;;;;;4994772;28;20047;-70
2022/01/25 11:20:50;;;;;;;20.30;14.98;;;;;;;;;;4994718;28;20046;-71
2022/01/25 11:23:16;;;;;;;19.27;13.60;;;;;;;;;;4993631;28;20038;-71
2022/01/25 11:25:43;;;;;;;21.38;14.25;;;;;;;;;;4994771;28;20049;-71
2022/01/25 11:28:09;;;;;;;21.42;17.40;;;;;;;;;;4993271;28;20045;-71
2022/01/25 11:30:38;;;;;;;21.38;17.13;;;;;;;;;;4993942;28;20069;-71
2022/01/25 11:33:05;;;;;;;17.50;13.93;;;;;;;;;;4994548;28;20042;-71
2022/01/25 11:35:31;;;;;;;19.25;13.73;;;;;;;;;;4993313;28;20109;-71
2022/01/25 11:37:58;;;;;;;18.60;12.90;;;;;;;;;;4994107;28;20035;-71
2022/01/25 11:40:30;;;;;;;14.27;11.98;;;;;;;;;;4995084;28;20042;-71
2022/01/25 11:42:58;;;;;;;16.05;11.95;;;;;;;;;;4994871;28;20046;-71
2022/01/25 11:45:25;;;;;;;15.32;11.77;;;;;;;;;;4994176;28;20042;-71
2022/01/25 11:47:52;;;;;;;17.63;10.55;;;;;;;;;;4994922;28;20034;-71
2022/01/25 11:50:18;;;;;;;14.77;10.70;;;;;;;;;;4993659;28;20050;-71
2022/01/25 11:52:49;;;;;;;16.35;11.93;;;;;;;;;;4994653;28;20097;-71
2022/01/25 11:55:24;;;;;;;16.30;10.90;;;;;;;;;;4995108;28;20042;-71
2022/01/25 11:57:54;;;;;;;13.93;10.40;;;;;;;;;;4995334;28;20032;-70
2022/01/25 12:00:23;;;;;;;14.10;9.73;;;;;;;;;;4995104;28;20429;-71
2022/01/25 12:02:50;;;;;;;14.90;9.60;;;;;;;;;;4995269;28;20073;-71
2022/01/25 12:05:25;;;;;;;13.50;9.00;;;;;;;;;;4994903;28;20527;-71
2022/01/25 12:08:29;;;;;;;10.60;8.18;;;;;;;;;;4995130;28;20040;-70
2022/01/25 12:11:05;;;;;;;14.23;10.50;;;;;;;;;;4993593;28;20046;-70
2022/01/25 12:13:32;;;;;;;12.48;8.00;;;;;;;;;;4995023;28;20046;-70
2022/01/25 12:16:16;;;;;;;11.45;8.07;;;;;;;;;;4995231;28;20061;-70
2022/01/25 12:18:58;;;;;;;11.43;7.88;;;;;;;;;;4994652;28;20034;-70
2022/01/25 12:21:42;;;;;;;11.55;7.20;;;;;;;;;;4995475;28;20148;-70
2022/01/25 12:24:21;;;;;;;9.43;6.60;;;;;;;;;;4993853;28;20042;-70
2022/01/25 12:27:05;;;;;;;9.38;7.18;;;;;;;;;;4995185;28;20125;-70
2022/01/25 12:29:31;;;;;;;6.82;6.13;;;;;;;;;;4995222;28;20042;-70
2022/01/25 12:32:16;;;;;;;8.60;6.60;;;;;;;;;;4995143;28;20469;-70
2022/01/25 12:35:00;;;;;;;11.10;6.03;;;;;;;;;;4997429;28;20109;-70
2022/01/25 12:37:45;;;;;;;12.05;5.93;;;;;;;;;;4998786;28;20045;-70
2022/01/25 12:40:26;;;;;;;30.55;23.65;;;;;;;;;;4998162;28;20064;-70
2022/01/25 12:43:10;;;;;;;11.90;7.88;;;;;;;;;;4998554;28;20097;-70
2022/01/25 12:45:56;;;;;;;9.18;5.80;;;;;;;;;;4998292;28;20045;-70
2022/01/25 12:48:27;;;;;;;9.05;5.75;;;;;;;;;;4998504;28;20039;-71
2022/01/25 12:50:53;;;;;;;;;;;;;;;;;;4998371;28;20034;-71
2022/01/25 12:53:21;;;;;;;7.65;5.05;;;;;;;;;;4998501;28;20040;-71
2022/01/25 12:55:49;;;;;;;8.85;5.05;;;;;;;;;;4998159;28;20034;-71
2022/01/25 12:58:15;;;;;;;6.03;4.63;;;;;;;;;;4998433;28;20050;-71
2022/01/25 13:00:43;;;;;;;8.82;4.70;;;;;;;;;;4998533;28;20128;-71
2022/01/25 13:03:17;;;;;;;7.50;4.68;;;;;;;;;;4997826;28;20042;-71
2022/01/25 13:05:46;;;;;;;11.27;8.30;;;;;;;;;;5010393;28;20119;-71
2022/01/25 13:08:20;;;;;;;25.30;18.40;;;;;;;;;;5017378;28;20026;-71
2022/01/25 13:10:46;;;;;;;6.90;4.70;;;;;;;;;;5016919;28;20045;-71
2022/01/25 13:13:23;;;;;;;4.90;4.35;;;;;;;;;;5016683;28;20040;-70
2022/01/25 13:15:56;;;;;;;7.88;4.35;;;;;;;;;;5016324;28;20062;-71
2022/01/25 13:18:23;;;;;;;5.28;4.18;;;;;;;;;;5016054;28;20030;-71
2022/01/25 13:20:58;;;;;;;6.53;4.28;;;;;;;;;;5016313;28;20120;-71
2022/01/25 13:23:25;;;;;;;6.18;3.72;;;;;;;;;;5016585;28;20109;-71
2022/01/25 13:25:58;;;;;;;4.95;3.63;;;;;;;;;;5016644;28;20037;-71
2022/01/25 13:31:12;;;;;;;12.65;6.30;;;;;;;;;;5015321;28;20096;-71
2022/01/25 13:33:38;;;;;;;13.32;9.40;;;;;;;;;;5016610;28;20069;-71
2022/01/25 13:36:07;;;;;;;6.72;4.68;;;;;;;;;;5017015;28;20030;-71
2022/01/25 13:38:37;;;;;;;7.70;6.00;;;;;;;;;;5016980;28;20042;-71
2022/01/25 13:41:19;;;;;;;7.82;6.85;;;;;;;;;;5016086;28;20042;-71
2022/01/25 13:46:22;;;;;;;8.70;5.97;;;;;;;;;;5013646;28;20454;-70
2022/01/25 13:48:50;;;;;;;11.82;5.88;;;;;;;;;;5016055;28;20038;-71
2022/01/25 13:51:19;;;;;;;6.20;4.18;;;;;;;;;;5016555;28;20120;-71
2022/01/25 13:53:53;;;;;;;6.47;3.70;;;;;;;;;;5016216;28;20113;-71
2022/01/25 13:56:20;;;;;;;4.90;4.10;;;;;;;;;;5016834;28;20034;-71
2022/01/25 13:58:47;;;;;;;6.03;4.70;;;;;;;;;;5016655;28;20048;-71
2022/01/25 14:01:14;;;;;;;4.95;3.65;;;;;;;;;;5016989;28;20038;-71
2022/01/25 14:03:43;;;;;;;10.05;4.10;;;;;;;;;;5016203;28;20034;-71
2022/01/25 14:06:26;;;;;;;4.82;3.90;;;;;;;;;;5016701;28;20042;-71
2022/01/25 14:09:01;;;;;;;4.28;3.78;;;;;;;;;;5016090;28;20100;-71
2022/01/25 14:11:38;;;;;;;5.88;4.00;;;;;;;;;;5016648;28;20025;-71
2022/01/25 14:22:47;;;;;;;12.20;10.07;;;;;;;;;;5015881;28;20044;-71
2022/01/25 14:25:13;;;;;;;21.23;17.20;;;;;;;;;;5016416;28;20037;-71
2022/01/25 14:27:50;;;;;;;5.03;4.50;;;;;;;;;;5016095;28;20046;-71
2022/01/25 14:30:20;;;;;;;4.80;3.75;;;;;;;;;;5015759;28;20045;-71
2022/01/25 14:32:56;;;;;;;4.18;2.88;;;;;;;;;;5015804;28;20060;-71
2022/01/25 14:35:22;;;;;;;3.78;2.90;;;;;;;;;;5015919;28;20046;-71
2022/01/25 14:37:49;;;;;;;5.32;2.65;;;;;;;;;;5016478;28;20465;-71
2022/01/25 14:40:16;;;;;;;4.25;3.00;;;;;;;;;;5016013;28;20046;-71
2022/01/25 14:42:45;;;;;;;5.03;2.78;;;;;;;;;;5016045;28;20049;-71
2022/01/25 14:45:14;;;;;;;7.55;3.45;;;;;;;;;;5015772;28;20511;-71
2022/01/25 14:47:45;;;;;;;4.00;3.10;;;;;;;;;;5015770;28;20151;-71
2022/01/25 14:50:17;;;;;;;4.25;3.42;;;;;;;;;;5015892;28;20120;-71
2022/01/25 14:52:46;;;;;;;4.75;4.10;;;;;;;;;;5016486;28;20462;-72
2022/01/25 14:55:20;;;;;;;5.32;4.63;;;;;;;;;;5015859;28;20030;-72
2022/01/25 14:58:03;;;;;;;7.78;4.55;;;;;;;;;;5015597;28;20496;-72
2022/01/25 15:00:29;;;;;;;10.57;6.63;;;;;;;;;;5015638;28;20029;-72
2022/01/25 15:02:55;;;;;;;9.63;7.18;;;;;;;;;;5015631;28;20072;-72
2022/01/25 15:05:21;;;;;;;14.45;8.43;;;;;;;;;;5010787;28;20485;-72
2022/01/25 15:07:48;;;;;;;11.80;7.90;;;;;;;;;;5014678;28;20038;-73
2022/01/25 15:10:19;;;;;;;15.40;9.27;;;;;;;;;;5010387;28;20143;-72
2022/01/25 15:12:48;;;;;;;13.73;9.13;;;;;;;;;;5014878;28;20049;-72
2022/01/25 15:15:23;;;;;;;14.88;9.68;;;;;;;;;;5014293;28;20080;-72
2022/01/25 15:17:49;;;;;;;16.27;11.05;;;;;;;;;;5014468;28;20034;-72
2022/01/25 15:20:16;;;;;;;13.75;10.27;;;;;;;;;;5014179;28;20077;-72
2022/01/25 15:22:44;;;;;;;19.83;11.20;;;;;;;;;;5012724;28;20044;-72
2022/01/25 15:25:12;;;;;;;17.83;10.18;;;;;;;;;;5015051;28;20038;-72
2022/01/25 15:27:39;;;;;;;15.80;9.63;;;;;;;;;;5014614;28;20481;-72
2022/01/25 15:30:06;;;;;;;16.95;10.60;;;;;;;;;;5014171;28;20066;-72
2022/01/25 15:32:32;;;;;;;12.30;9.27;;;;;;;;;;5014399;28;20477;-71
2022/01/25 15:34:58;;;;;;;14.45;9.40;;;;;;;;;;5013557;28;20030;-72
2022/01/25 15:37:24;;;;;;;18.13;9.48;;;;;;;;;;5013495;28;20088;-73
2022/01/25 15:39:51;;;;;;;13.68;8.20;;;;;;;;;;5012900;28;20492;-72
2022/01/25 15:42:19;;;;;;;14.15;9.25;;;;;;;;;;5014468;28;20034;-72
2022/01/25 15:44:47;;;;;;;14.50;8.00;;;;;;;;;;5014184;28;20075;-72
2022/01/25 15:47:14;;;;;;;13.20;7.78;;;;;;;;;;5014518;28;20034;-72
2022/01/25 15:49:41;;;;;;;11.38;7.55;;;;;;;;;;5014114;28;20049;-73
2022/01/25 15:52:07;;;;;;;14.38;9.15;;;;;;;;;;5014067;28;20029;-72
2022/01/25 15:54:34;;;;;;;15.35;8.85;;;;;;;;;;5014415;28;20045;-72
2022/01/25 15:57:00;;;;;;;16.35;8.43;;;;;;;;;;5014278;28;20404;-72
2022/01/25 15:59:27;;;;;;;12.27;9.00;;;;;;;;;;5014489;28;20041;-72
2022/01/25 16:01:58;;;;;;;11.75;7.65;;;;;;;;;;5013832;28;20057;-72
2022/01/25 16:04:26;;;;;;;10.52;7.28;;;;;;;;;;5013658;28;20473;-72
2022/01/25 16:06:52;;;;;;;12.55;6.50;;;;;;;;;;5014156;28;20036;-72
2022/01/25 16:09:18;;;;;;;10.48;8.30;;;;;;;;;;5016771;28;20481;-72
2022/01/25 16:11:48;;;;;;;10.50;7.05;;;;;;;;;;5018310;28;20038;-72
2022/01/25 16:14:15;;;;;;;12.13;7.45;;;;;;;;;;5017686;28;20100;-72
2022/01/25 16:16:42;;;;;;;9.75;7.13;;;;;;;;;;5017568;28;20051;-73
2022/01/25 16:19:08;;;;;;;8.18;6.75;;;;;;;;;;5017102;28;20042;-72
2022/01/25 16:21:35;;;;;;;11.13;7.25;;;;;;;;;;5017126;28;20077;-72
2022/01/25 16:24:01;;;;;;;14.50;7.05;;;;;;;;;;5017379;28;20053;-72
2022/01/25 16:26:27;;;;;;;11.35;7.40;;;;;;;;;;5017796;28;20038;-72
2022/01/25 16:28:54;;;;;;;9.13;6.32;;;;;;;;;;5017230;28;20053;-72
2022/01/25 16:31:29;;;;;;;13.65;7.32;;;;;;;;;;5017328;28;20045;-71
2022/01/25 16:33:55;;;;;;;10.25;6.55;;;;;;;;;;5015743;28;20037;-72
2022/01/25 16:36:22;;;;;;;11.70;8.00;;;;;;;;;;5016963;28;20033;-72
2022/01/25 16:38:48;;;;;;;9.82;7.18;;;;;;;;;;5017541;28;20040;-71
2022/01/25 16:41:15;;;;;;;11.27;7.45;;;;;;;;;;5016793;28;20084;-71
2022/01/25 16:43:42;;;;;;;10.10;6.85;;;;;;;;;;5016702;28;20074;-72